地図

経路データ

SID SEASON NUMBER BASIN SUBBASIN NAME ISO_TIME NATURE LAT LON WMO_WIND WMO_PRES WMO_AGENCY TRACK_TYPE DIST2LAND LANDFALL IFLAG USA_AGENCY USA_ATCF_ID USA_LAT USA_LON USA_RECORD USA_STATUS USA_WIND USA_PRES USA_SSHS USA_R34_NE USA_R34_SE USA_R34_SW USA_R34_NW USA_R50_NE USA_R50_SE USA_R50_SW USA_R50_NW USA_R64_NE USA_R64_SE USA_R64_SW USA_R64_NW USA_POCI USA_ROCI USA_RMW USA_EYE TOKYO_LAT TOKYO_LON TOKYO_GRADE TOKYO_WIND TOKYO_PRES TOKYO_R50_DIR TOKYO_R50_LONG TOKYO_R50_SHORT TOKYO_R30_DIR TOKYO_R30_LONG TOKYO_R30_SHORT TOKYO_LAND CMA_LAT CMA_LON CMA_CAT CMA_WIND CMA_PRES HKO_LAT HKO_LON HKO_CAT HKO_WIND HKO_PRES NEWDELHI_LAT NEWDELHI_LON NEWDELHI_GRADE NEWDELHI_WIND NEWDELHI_PRES NEWDELHI_CI NEWDELHI_DP NEWDELHI_POCI REUNION_LAT REUNION_LON REUNION_TYPE REUNION_WIND REUNION_PRES REUNION_TNUM REUNION_CI REUNION_RMW REUNION_R34_NE REUNION_R34_SE REUNION_R34_SW REUNION_R34_NW REUNION_R50_NE REUNION_R50_SE REUNION_R50_SW REUNION_R50_NW REUNION_R64_NE REUNION_R64_SE REUNION_R64_SW REUNION_R64_NW BOM_LAT BOM_LON BOM_TYPE BOM_WIND BOM_PRES BOM_TNUM BOM_CI BOM_RMW BOM_R34_NE BOM_R34_SE BOM_R34_SW BOM_R34_NW BOM_R50_NE BOM_R50_SE BOM_R50_SW BOM_R50_NW BOM_R64_NE BOM_R64_SE BOM_R64_SW BOM_R64_NW BOM_ROCI BOM_POCI BOM_EYE BOM_POS_METHOD BOM_PRES_METHOD NADI_LAT NADI_LON NADI_CAT NADI_WIND NADI_PRES WELLINGTON_LAT WELLINGTON_LON WELLINGTON_WIND WELLINGTON_PRES DS824_LAT DS824_LON DS824_STAGE DS824_WIND DS824_PRES TD9636_LAT TD9636_LON TD9636_STAGE TD9636_WIND TD9636_PRES TD9635_LAT TD9635_LON TD9635_WIND TD9635_PRES TD9635_ROCI NEUMANN_LAT NEUMANN_LON NEUMANN_CLASS NEUMANN_WIND NEUMANN_PRES MLC_LAT MLC_LON MLC_CLASS MLC_WIND MLC_PRES USA_GUST BOM_GUST BOM_GUST_PER REUNION_GUST REUNION_GUST_PER USA_SEAHGT USA_SEARAD_NE USA_SEARAD_SE USA_SEARAD_SW USA_SEARAD_NW STORM_SPEED STORM_DIR
1959191N21090 1959 47 NI BB NOT_NAMED 1959-07-09 18:00:00 TS 21.0000 90.3000 main 90 78 O________O____ jtwc_io IO081959 21.0000 90.3000 -1 21.0000 90.3000 TC 3 346
1959191N21090 1959 47 NI BB NOT_NAMED 1959-07-09 21:00:00 TS 21.1275 90.2601 main 78 55 P________P____ IO081959 21.1275 90.2601 -1 21.1275 90.2601 TC 3 343
1959191N21090 1959 47 NI BB NOT_NAMED 1959-07-10 00:00:00 TS 21.3000 90.2000 main 55 33 O________O____ jtwc_io IO081959 21.3000 90.2000 -1 21.3000 90.2000 TC 25 5 341
1959191N21090 1959 47 NI BB NOT_NAMED 1959-07-10 03:00:00 TS 21.5599 90.0953 main 22 0 P________PO___ IO081959 21.5549 90.0947 -1 21.5549 90.0947 TC 25 21.6000 90.1000 1 7 335
1959191N21090 1959 47 NI BB NOT_NAMED 1959-07-10 06:00:00 TS 21.9232 89.8824 main 0 0 O________OP___ jtwc_io IO081959 21.9000 89.9000 -1 21.9000 89.9000 TC 25 22.0162 89.8122 1 10 329
1959191N21090 1959 47 NI BB NOT_NAMED 1959-07-10 09:00:00 TS 22.3734 89.5663 main 0 0 P________PP___ IO081959 22.3575 89.5878 -1 22.3575 89.5878 TC 25 22.4158 89.5089 1 11 324
1959191N21090 1959 47 NI BB NOT_NAMED 1959-07-10 12:00:00 TS 22.7942 89.1920 main 0 0 O________OP___ jtwc_io IO081959 22.8000 89.2000 -1 22.8000 89.2000 TC 25 22.7826 89.1761 1 10 316
1959191N21090 1959 47 NI BB NOT_NAMED 1959-07-10 15:00:00 TS 23.0915 88.8197 main 0 0 P________PO___ IO081959 23.0873 88.8296 -1 23.0873 88.8296 TC 25 23.1000 88.8000 1 9 305
1959191N21090 1959 47 NI BB NOT_NAMED 1959-07-10 18:00:00 TS 23.3186 88.3890 main 0 0 O________OP___ jtwc_io IO081959 23.3000 88.4000 -1 23.3000 88.4000 TC 25 23.3557 88.3671 1 10 298
1959191N21090 1959 47 NI BB NOT_NAMED 1959-07-10 21:00:00 TS 23.5374 87.8899 main 0 0 P________PP___ IO081959 23.5297 87.9026 -1 23.5297 87.9026 TC 25 23.5529 87.8645 1 11 291
1959191N21090 1959 47 NI BB NOT_NAMED 1959-07-11 00:00:00 TS 23.6996 87.2933 main 0 0 O________OP___ jtwc_io IO081959 23.7000 87.3000 -1 23.7000 87.3000 TC 25 23.6987 87.2798 1 12 282
1959191N21090 1959 47 NI BB NOT_NAMED 1959-07-11 03:00:00 TS 23.7815 86.6014 main 0 0 P________PO___ IO081959 23.7722 86.6021 -1 23.7722 86.6021 TC 25 23.8000 86.6000 1 14 275
1959191N21090 1959 47 NI BB NOT_NAMED 1959-07-11 06:00:00 TS 23.8246 85.7991 main 0 0 O________OP___ jtwc_io IO081959 23.8000 85.8000 -1 23.8000 85.8000 TC 25 23.8737 85.7973 1 15 273
1959191N21090 1959 47 NI BB NOT_NAMED 1959-07-11 09:00:00 TS 23.8731 84.9180 main 0 0 P________PP___ IO081959 23.8573 84.9226 -1 23.8573 84.9226 TC 25 23.9046 84.9088 1 17 273
1959191N21090 1959 47 NI BB NOT_NAMED 1959-07-11 12:00:00 TS 23.9026 83.9970 main 0 0 O________OP___ jtwc_io IO081959 23.9000 84.0000 -1 23.9000 84.0000 TC 25 23.9079 83.9910 1 17 271
1959191N21090 1959 47 NI BB NOT_NAMED 1959-07-11 15:00:00 TS 23.9048 83.0899 main 0 0 P________PO___ IO081959 23.9072 83.0849 -1 23.9072 83.0849 TC 25 23.9000 83.1000 1 16 270
1959191N21090 1959 47 NI BB NOT_NAMED 1959-07-11 18:00:00 TS 23.9023 82.2164 main 0 0 O________OP___ jtwc_io IO081959 23.9000 82.2000 -1 23.9000 82.2000 TC 25 23.9070 82.2491 1 16 270
1959191N21090 1959 47 NI BB NOT_NAMED 1959-07-11 21:00:00 TS 23.9026 81.3692 main 0 0 P________PP___ IO081959 23.9000 81.3325 -1 23.9000 81.3325 TC 25 23.9077 81.4426 1 14 270
1959191N21090 1959 47 NI BB NOT_NAMED 1959-07-12 00:00:00 TS 23.9015 80.6382 main 0 0 O________OP___ jtwc_io IO081959 23.9000 80.6000 -1 23.9000 80.6000 TC 25 23.9044 80.7147 1 12 270
1959191N21090 1959 47 NI BB NOT_NAMED 1959-07-12 03:00:00 TS 23.8996 80.0883 main 0 0 P________PO___ IO081959 23.8994 80.0825 -1 23.8994 80.0825 TC 25 23.9000 80.1000 1 9 270
1959191N21090 1959 47 NI BB NOT_NAMED 1959-07-12 06:00:00 TS 23.8993 79.6797 main 0 0 O________OP___ jtwc_io IO081959 23.9000 79.7000 -1 23.9000 79.7000 TC 25 23.8978 79.6392 1 7 270
1959191N21090 1959 47 NI BB NOT_NAMED 1959-07-12 09:00:00 TS 23.8990 79.3192 main 0 0 P________PP___ IO081959 23.8998 79.3350 -1 23.8998 79.3350 TC 25 23.8973 79.2877 1 6 270
1959191N21090 1959 47 NI BB NOT_NAMED 1959-07-12 12:00:00 TS 23.8994 78.9974 main 0 0 O________OP___ jtwc_io IO081959 23.9000 79.0000 -1 23.9000 79.0000 TC 25 23.8983 78.9923 1 6 270
1959191N21090 1959 47 NI BB NOT_NAMED 1959-07-12 15:00:00 TS 23.8999 78.6667 main 0 0 P________PO___ IO081959 23.8999 78.6500 -1 23.8999 78.6500 TC 25 23.9000 78.7000 1 6 270
1959191N21090 1959 47 NI BB NOT_NAMED 1959-07-12 18:00:00 TS 23.8996 78.3270 main 0 0 O________OP___ jtwc_io IO081959 23.9000 78.3000 -1 23.9000 78.3000 TC 25 23.8988 78.3809 1 6 270
1959191N21090 1959 47 NI AS NOT_NAMED 1959-07-12 21:00:00 TS 23.8992 77.9975 main 0 0 P________PP___ IO081959 23.8997 77.9725 -1 23.8997 77.9725 TC 25 23.8981 78.0474 1 6 270
1959191N21090 1959 47 NI AS NOT_NAMED 1959-07-13 00:00:00 TS 23.8995 77.6217 main 0 0 O________OP___ jtwc_io IO081959 23.9000 77.6000 -1 23.9000 77.6000 TC 25 23.8984 77.6652 1 8 270
1959191N21090 1959 47 NI AS NOT_NAMED 1959-07-13 03:00:00 TS 23.8998 77.1683 main 0 0 P________PO___ IO081959 23.8997 77.1525 -1 23.8997 77.1525 TC 25 23.9000 77.2000 1 9 270
1959191N21090 1959 47 NI AS NOT_NAMED 1959-07-13 06:00:00 TS 23.9003 76.6010 main 0 0 O________OP___ jtwc_io IO081959 23.9000 76.6000 -1 23.9000 76.6000 TC 25 23.9009 76.6031 1 11 270
1959191N21090 1959 47 NI AS NOT_NAMED 1959-07-13 09:00:00 TS 23.9005 75.9233 main 0 0 P________PP___ IO081959 23.9001 75.9225 -1 23.9001 75.9225 TC 25 23.9012 75.9249 1 13 270
1959191N21090 1959 47 NI AS NOT_NAMED 1959-07-13 12:00:00 TS 23.9002 75.2031 main 0 0 O________OP___ jtwc_io IO081959 23.9000 75.2000 -1 23.9000 75.2000 TC 25 23.9007 75.2093 1 13 270
1959191N21090 1959 47 NI AS NOT_NAMED 1959-07-13 15:00:00 TS 23.8998 74.5283 main 0 0 P________PO___ IO081959 23.8996 74.5425 -1 23.8996 74.5425 TC 25 23.9000 74.5000 1 12 270
1959191N21090 1959 47 NI AS NOT_NAMED 1959-07-13 18:00:00 TS 23.9008 73.8923 main 0 0 O________OP___ jtwc_io IO081959 23.9000 73.9000 -1 23.9000 73.9000 TC 25 23.9025 73.8770 1 12 270
1959191N21090 1959 47 NI AS NOT_NAMED 1959-07-13 21:00:00 TS 23.9016 73.2551 main 0 0 P________PP___ IO081959 23.8997 73.2500 -1 23.8997 73.2500 TC 25 23.9053 73.2652 1 12 270
1959191N21090 1959 47 NI AS NOT_NAMED 1959-07-14 00:00:00 TS 23.9019 72.6153 main 0 0 O________OP___ jtwc_io IO081959 23.9000 72.6000 -1 23.9000 72.6000 TC 25 23.9056 72.6458 1 12 270
1959191N21090 1959 47 NI AS NOT_NAMED 1959-07-14 03:00:00 TS 23.8997 71.9767 main 0 0 P________PO___ IO081959 23.8995 71.9650 -1 23.8995 71.9650 TC 25 23.9000 72.0000 1 12 270
1959191N21090 1959 47 NI AS NOT_NAMED 1959-07-14 06:00:00 TS 23.8970 71.2905 main 0 0 O________OP___ jtwc_io IO081959 23.9000 71.3000 -1 23.9000 71.3000 TC 25 23.8909 71.2714 1 13 270
1959191N21090 1959 47 NI AS NOT_NAMED 1959-07-14 09:00:00 TS 23.9012 70.5402 main 0 0 P________PP___ IO081959 23.9151 70.5502 -1 23.9151 70.5502 TC 25 23.8735 70.5202 1 14 269
1959191N21090 1959 47 NI AS NOT_NAMED 1959-07-14 12:00:00 TS 23.8814 69.7946 main 0 0 O________OP___ jtwc_io IO081959 23.9000 69.8000 -1 23.9000 69.8000 TC 25 23.8441 69.7839 1 13 266
1959191N21090 1959 47 NI AS NOT_NAMED 1959-07-14 15:00:00 TS 23.8048 69.1132 main 0 0 P________PO___ IO081959 23.8072 69.1198 -1 23.8072 69.1198 TC 25 23.8000 69.1000 1 12 262
1959191N21090 1959 47 NI AS NOT_NAMED 1959-07-14 18:00:00 TS 23.7128 68.4923 main 0 0 O________OP___ jtwc_io IO081959 23.7000 68.5000 -1 23.7000 68.5000 TC 25 23.7385 68.4768 1 11 262
1959191N21090 1959 47 NI AS NOT_NAMED 1959-07-14 21:00:00 TS 23.6547 67.9084 main 15 15 P________PP___ IO081959 23.6499 67.9052 -1 23.6499 67.9052 TC 25 23.6641 67.9149 1 10 263
1959191N21090 1959 47 NI AS NOT_NAMED 1959-07-15 00:00:00 TS 23.5942 67.4069 main 30 30 O________OP___ jtwc_io IO081959 23.6000 67.4000 -1 23.6000 67.4000 TC 25 23.5827 67.4206 1 8 259
1959191N21090 1959 47 NI AS NOT_NAMED 1959-07-15 03:00:00 TS 23.4998 67.0083 main 67 67 P________PO___ IO081959 23.4997 67.0125 -1 23.4997 67.0125 TC 25 23.5000 67.0000 1 7 254
1959191N21090 1959 47 NI AS NOT_NAMED 1959-07-15 06:00:00 TS 23.4094 66.6818 main 97 97 O________OP___ jtwc_io IO081959 23.4000 66.7000 -1 23.4000 66.7000 TC 25 23.4281 66.6454 1 6 256
1959191N21090 1959 47 NI AS NOT_NAMED 1959-07-15 09:00:00 TS 23.3521 66.3719 main 121 121 P________PP___ IO081959 23.3500 66.3776 -1 23.3500 66.3776 TC 25 23.3564 66.3605 1 5 258
1959191N21090 1959 47 NI AS NOT_NAMED 1959-07-15 12:00:00 TS 23.2938 66.1068 main 153 153 O________OP___ jtwc_io IO081959 23.3000 66.1000 -1 23.3000 66.1000 TC 25 23.2815 66.1203 1 5 251
1959191N21090 1959 47 NI AS NOT_NAMED 1959-07-15 15:00:00 TS 23.2049 65.8950 main 177 177 P________PO___ IO081959 23.2074 65.8925 -1 23.2074 65.8925 TC 25 23.2000 65.9000 1 4 243
1959191N21090 1959 47 NI AS NOT_NAMED 1959-07-15 18:00:00 TS 23.0996 65.6855 main 200 200 O________OP___ jtwc_io IO081959 23.1000 65.7000 -1 23.1000 65.7000 TC 25 23.0989 65.6565 1 5 243
1959191N21090 1959 47 NI AS NOT_NAMED 1959-07-15 21:00:00 TS 22.9924 65.4425 main 232 232 P________PP___ IO081959 22.9925 65.4500 -1 22.9925 65.4500 TC 30 22.9923 65.4275 1 5 245
1959191N21090 1959 47 NI AS NOT_NAMED 1959-07-16 00:00:00 TS 22.8965 65.2032 main 255 255 O________OP___ jtwc_io IO081959 22.9000 65.2000 -1 22.9000 65.2000 TC 35 22.8896 65.2096 1 4 248
1959191N21090 1959 47 NI AS NOT_NAMED 1959-07-16 03:00:00 TS 22.8283 64.9950 main 269 268 P________PO___ IO081959 22.8424 64.9926 -1 22.8424 64.9926 TC 35 22.8000 65.0000 2 4 252
1959191N21090 1959 47 NI AS NOT_NAMED 1959-07-16 06:00:00 TS 22.7785 64.7977 main 268 268 O________OP___ jtwc_io IO081959 22.8000 64.8000 -1 22.8000 64.8000 TC 35 22.7355 64.7930 2 4 255
1959191N21090 1959 47 NI AS NOT_NAMED 1959-07-16 09:00:00 TS 22.7283 64.5976 main 279 279 P________PP___ IO081959 22.7500 64.6000 -1 22.7500 64.6000 TC 35 22.6848 64.5927 2 4 255
1959191N21090 1959 47 NI AS NOT_NAMED 1959-07-16 12:00:00 TS 22.6806 64.3987 main 279 279 O________OP___ jtwc_io IO081959 22.7000 64.4000 -1 22.7000 64.4000 TC 35 22.6418 64.3961 2 4 256
1959191N21090 1959 47 NI AS NOT_NAMED 1959-07-16 15:00:00 TS 22.6333 64.2000 main 291 291 P________PO___ IO081959 22.6500 64.2000 -1 22.6500 64.2000 TC 35 22.6000 64.2000 3 4 254
1959191N21090 1959 47 NI AS NOT_NAMED 1959-07-16 18:00:00 TS 22.5792 64.0054 main 293 293 O________OP___ jtwc_io IO081959 22.6000 64.0000 -1 22.6000 64.0000 TC 35 22.5376 64.0162 3 4 253
1959191N21090 1959 47 NI AS NOT_NAMED 1959-07-16 21:00:00 TS 22.5257 63.8150 main 303 301 P________PP___ IO081959 22.5499 63.8075 -1 22.5499 63.8075 TC 35 22.4771 63.8298 3 4 254
1959191N21090 1959 47 NI AS NOT_NAMED 1959-07-17 00:00:00 TS 22.4760 63.6095 main 301 301 O________OP___ jtwc_io IO081959 22.5000 63.6000 -1 22.5000 63.6000 TC 35 22.4282 63.6286 3 4 256
1959191N21090 1959 47 NI AS NOT_NAMED 1959-07-17 03:00:00 TS 22.4283 63.3766 main 313 310 P________PO___ IO081959 22.4425 63.3650 -1 22.4425 63.3650 TC 35 22.4000 63.4000 3 5 260
1959191N21090 1959 47 NI AS NOT_NAMED 1959-07-17 06:00:00 TS 22.3971 63.1096 main 310 304 O________OP___ jtwc_io IO081959 22.4000 63.1000 -1 22.4000 63.1000 TC 35 22.3913 63.1287 3 5 265
1959191N21090 1959 47 NI AS NOT_NAMED 1959-07-17 09:00:00 TS 22.3867 62.8149 main 304 277 P________PP___ IO081959 22.3775 62.8074 -1 22.3775 62.8074 TC 35 22.4051 62.8299 3 6 272
1959191N21090 1959 47 NI AS NOT_NAMED 1959-07-17 12:00:00 TS 22.4138 62.5054 main 277 246 O________OP___ jtwc_io IO081959 22.4000 62.5000 -1 22.4000 62.5000 TC 35 22.4413 62.5161 3 6 280
1959191N21090 1959 47 NI AS NOT_NAMED 1959-07-17 15:00:00 TS 22.4900 62.2000 main 246 216 P________PO___ IO081959 22.4849 62.2001 -1 22.4849 62.2001 TC 35 22.5000 62.2000 3 6 288
1959191N21090 1959 47 NI AS NOT_NAMED 1959-07-17 18:00:00 TS 22.5922 61.8966 main 216 187 O________OP___ jtwc_io IO081959 22.6000 61.9000 -1 22.6000 61.9000 TC 35 22.5804 61.8915 3 6 290
1959191N21090 1959 47 NI AS NOT_NAMED 1959-07-17 21:00:00 TS 22.6934 61.5959 main 187 160 P________PP___ IO081959 22.7051 61.6000 -1 22.7051 61.6000 TC 30 22.6778 61.5905 3 6 290
1959191N21090 1959 47 NI AS NOT_NAMED 1959-07-18 00:00:00 TS 22.7931 61.2971 main 160 135 O________OP___ jtwc_io IO081959 22.8000 61.3000 -1 22.8000 61.3000 TC 25 22.7862 61.2942 3 6 291
1959191N21090 1959 47 NI AS NOT_NAMED 1959-07-18 03:00:00 NR 22.9000 61.0000 main 135 __________O___ IO081959 -1 TC 22.9000 61.0000 1 6 291

IBTrACS Databaseについて

本データベースは、米国NOAAが公開する1842年以降の世界の熱帯低気圧のベストトラックデータアーカイブInternational Best Track Archive for Climate Stewardship (IBTrACS)を、ウェブで閲覧しやすい形式に変換したものです。

最終更新日:2021-12-03